KCYS/CYS METAR and TAF weather

Enter ICAO airport designator
Station Type Date Time Source
KCYS METAR 2018/01/22 19:53 UTC NOAA

KCYS 221953Z 31019G28KT 10SM CLR M02/M11 A2997 RMK AO2 PK WND 31028/1946 SLP198 T10171111 $


Station Type Date Time Source
KCYS Decoded METAR 2018/01/22 19:53 UTC NOAA

CHEYENNE AIRPORT, WY, United States (KCYS) 41-09N 104-48W 1865M
Jan 22, 2018 - 02:53 PM EST / 2018.01.22 1953 UTC
Wind: from the NW (310 degrees) at 22 MPH (19 KT) gusting to 32 MPH (28 KT):0
Visibility: 10 mile(s):0
Sky conditions: clear
Temperature: 28.9 F (-1.7 C)
Windchill: 15 F (-9 C):1
Dew Point: 12.0 F (-11.1 C)
Relative Humidity: 48%
Pressure (altimeter): 29.97 in. Hg (1014 hPa)
ob: KCYS 221953Z 31019G28KT 10SM CLR M02/M11 A2997 RMK AO2 PK WND 31028/1946 SLP198 T10171111
cycle: 20

Station Type Date Time Source
KCYS TAF 2018/01/22 18:42 UTC NOAA

TAF KCYS 221740Z 2218/2318 28020G28KT P6SM SKC
FM222300 30013KT P6SM SKC


Example: see airport list